Trinity, FL

7:57 AM EDT on July 28, 2016 (GMT -0400)
Anclote River Estates | | Change Station

Elev 23 ft 28.21 °N, 82.70 °W | Updated 3 seconds ago

Partly Cloudy
Partly Cloudy
76.3 °F
Feels Like 76 °F
N
0.0
Wind Variable Wind from NNW
Gusts 0.0 mph

Today
High -- | Low -- °F
--% Chance of Precip.
Yesterday
High -- | Low -- °F
Precip. -- in
Pressure 30.07 in
Visibility 8.0 miles
Clouds Few 25000 ft
Heat Index 76 °F
Dew Point 75 °F
Humidity 95%
Rainfall 0.05 in
Snow Depth Not available.
6:51 AM 8:23 PM
Waning Crescent, 33% visible
METAR KTPA 281153Z 00000KT 8SM FEW250 27/24 A3007 RMK AO2 SLP183 70043 T02720244 10272 20250 53005
Pressure 30.07 in
Visibility 8.0 miles
Clouds Few 25000 ft
Heat Index 76 °F
Dew Point 75 °F
Humidity 95%
Rainfall 0.05 in
Snow Depth Not available.
6:51 AM 8:23 PM
Waning Crescent, 33% visible
METAR KTPA 281153Z 00000KT 8SM FEW250 27/24 A3007 RMK AO2 SLP183 70043 T02720244 10272 20250 53005

10-Day Weather Forecast

Almanac

Astronomy

Jul. 28, 2016 Rise Set
Actual Time
Civil Twilight
Nautical Twilight
Astronomical Twilight
Moon
Length of Visible Light
Length of Day
Tomorrow will be .
, % of the Moon is Illuminated

Today's Extremes

State Highs State Lows

Community

WunderPhotos

Upload Photos

1,928,096 photos uploaded!

WunderBlog® & News

Nearby

Air Quality

  Air Quality AQ Index Pollutant
Not available.

Snow Depth

Station Depth Elevation

Earthquake Activity

City Distance Mag. Time & Date
Minimum magnitude displayed is 2.5.

Coastal Water Temperatures

Place Temperature

Stations

Nearby Weather Stations

Station Location Temp. Windchill Dew Point Humidity Wind Precip. Elev Updated Type
                   

Watches & Warnings

There are currently no watches in effect.